Time;durP1;ratioP1;P1;durP2;ratioP2;P2;SDS_P1;SDS_P2;PMS_P1;PMS_P2;Temp;Humidity;BMP_temperature;BMP_pressure;BME280_temperature;BME280_humidity;BME280_pressure;Samples;Min_cycle;Max_cycle;Signal;HPM_P1;HPM_P2
2023/07/19 03:24:12;;;;;;;8.95;4.70;;;;;;;;;;8434400;27;1923348;-91
2023/07/19 03:28:14;;;;;;;7.55;4.63;;;;;;;;;;8506704;27;20050;-92
2023/07/19 03:32:17;;;;;;;7.90;4.38;;;;;;;;;;8504257;27;20046;-91
2023/07/19 03:36:20;;;;;;;6.75;4.50;;;;;;;;;;8508151;27;20051;-92
2023/07/19 03:40:24;;;;;;;6.47;3.95;;;;;;;;;;8504952;27;20035;-91
2023/07/19 03:44:27;;;;;;;6.00;3.78;;;;;;;;;;8499194;27;20052;-91
2023/07/19 03:48:30;;;;;;;6.35;3.60;;;;;;;;;;8495470;27;20044;-91
2023/07/19 03:52:33;;;;;;;8.13;4.05;;;;;;;;;;8493142;27;20040;-90
2023/07/19 03:56:38;;;;;;;9.48;3.95;;;;;;;;;;8491907;27;20052;-92
2023/07/19 04:00:40;;;;;;;6.70;3.75;;;;;;;;;;8491711;27;20047;-91
2023/07/19 04:04:43;;;;;;;12.32;5.53;;;;;;;;;;8495856;27;20054;-90
2023/07/19 04:08:46;;;;;;;10.23;4.55;;;;;;;;;;8494481;27;20035;-92
2023/07/19 04:12:51;;;;;;;7.30;4.20;;;;;;;;;;8514884;27;20138;-92
2023/07/19 04:16:54;;;;;;;6.78;3.80;;;;;;;;;;8515013;27;20545;-91
2023/07/19 04:20:58;;;;;;;7.30;4.28;;;;;;;;;;8507250;27;20139;-92
2023/07/19 04:25:01;;;;;;;7.20;3.92;;;;;;;;;;8467670;27;20073;-92
2023/07/19 04:29:06;;;;;;;10.25;4.22;;;;;;;;;;8492676;27;20546;-92
2023/07/19 04:33:09;;;;;;;7.85;4.15;;;;;;;;;;8481980;27;20074;-92
2023/07/19 04:37:12;;;;;;;5.57;3.22;;;;;;;;;;8495104;27;20039;-91
2023/07/19 04:41:15;;;;;;;7.30;3.60;;;;;;;;;;8475722;27;20047;-93
2023/07/19 04:45:20;;;;;;;6.78;3.85;;;;;;;;;;8471574;27;20040;-92
2023/07/19 04:49:22;;;;;;;5.60;3.10;;;;;;;;;;8467285;27;20047;-92
2023/07/19 04:53:26;;;;;;;8.20;4.07;;;;;;;;;;8471563;27;20508;-92
2023/07/19 04:57:28;;;;;;;7.20;3.03;;;;;;;;;;8476125;27;20067;-93
2023/07/19 05:01:33;;;;;;;6.28;3.10;;;;;;;;;;8484975;27;20096;-93
2023/07/19 05:05:36;;;;;;;7.75;3.15;;;;;;;;;;8491575;27;20168;-93
2023/07/19 05:09:41;;;;;;;5.00;2.60;;;;;;;;;;8502716;27;20054;-90
2023/07/19 05:13:44;;;;;;;5.15;2.55;;;;;;;;;;8500911;27;20405;-95
2023/07/19 05:17:48;;;;;;;8.77;2.78;;;;;;;;;;8480383;27;20082;-93
2023/07/19 05:21:51;;;;;;;5.85;2.47;;;;;;;;;;8470721;27;20484;-92
2023/07/19 05:25:56;;;;;;;4.75;2.40;;;;;;;;;;8483513;27;20047;-92
2023/07/19 05:29:59;;;;;;;3.42;2.28;;;;;;;;;;8469169;27;20123;-92
2023/07/19 05:34:04;;;;;;;4.60;2.58;;;;;;;;;;8475644;27;20532;-94
2023/07/19 05:38:07;;;;;;;3.17;2.10;;;;;;;;;;8484491;27;20051;-92
2023/07/19 05:42:10;;;;;;;5.88;2.50;;;;;;;;;;8484093;27;20039;-94
2023/07/19 05:46:13;;;;;;;3.85;2.38;;;;;;;;;;8479084;27;20475;-93
2023/07/19 05:50:28;;;;;;;3.00;2.00;;;;;;;;;;8473607;27;20095;-93
2023/07/19 05:54:41;;;;;;;6.95;2.45;;;;;;;;;;8488426;27;20047;-95
2023/07/19 05:58:55;;;;;;;4.32;2.60;;;;;;;;;;8482715;27;20043;-95
2023/07/19 06:03:17;;;;;;;6.25;2.60;;;;;;;;;;8474179;27;20188;-95
2023/07/19 06:07:35;;;;;;;6.32;2.60;;;;;;;;;;8494803;27;20367;-94
2023/07/19 06:11:38;;;;;;;3.65;2.40;;;;;;;;;;8478766;27;20036;-92
2023/07/19 06:15:41;;;;;;;5.10;2.60;;;;;;;;;;8494058;27;20046;-93
2023/07/19 06:19:44;;;;;;;3.70;2.25;;;;;;;;;;8485715;27;20078;-92
2023/07/19 06:23:48;;;;;;;6.30;2.60;;;;;;;;;;8464191;28;20048;-95
2023/07/19 06:27:51;;;;;;;4.43;2.20;;;;;;;;;;8475886;27;20075;-93
2023/07/19 06:31:54;;;;;;;5.60;2.53;;;;;;;;;;8495367;27;20047;-95
2023/07/19 06:35:57;;;;;;;3.75;2.30;;;;;;;;;;8469428;27;20043;-95
2023/07/19 06:40:03;;;;;;;6.25;2.22;;;;;;;;;;8479445;27;20091;-95
2023/07/19 06:44:06;;;;;;;2.22;1.70;;;;;;;;;;8467493;27;20384;-93
2023/07/19 06:48:09;;;;;;;5.60;2.08;;;;;;;;;;8468812;27;20035;-94
2023/07/19 06:52:12;;;;;;;5.53;2.25;;;;;;;;;;8484454;27;20055;-95
2023/07/19 06:56:17;;;;;;;4.88;2.03;;;;;;;;;;8471752;27;20042;-93
2023/07/19 07:00:20;;;;;;;4.50;1.92;;;;;;;;;;8496051;27;20096;-93
2023/07/19 07:04:23;;;;;;;2.88;1.95;;;;;;;;;;8480258;27;20039;-94
2023/07/19 07:08:53;;;;;;;4.43;2.10;;;;;;;;;;8496279;27;20050;-93
2023/07/19 07:13:02;;;;;;;4.28;2.20;;;;;;;;;;8492300;28;20051;-93
2023/07/19 07:17:06;;;;;;;3.58;2.10;;;;;;;;;;8464201;28;20069;-94
2023/07/19 07:21:09;;;;;;;2.78;2.03;;;;;;;;;;8462341;28;20067;-93
2023/07/19 07:25:12;;;;;;;3.50;2.20;;;;;;;;;;8463040;28;20131;-93
2023/07/19 07:29:16;;;;;;;5.85;2.20;;;;;;;;;;8483432;28;20118;-95
2023/07/19 07:33:20;;;;;;;3.13;1.90;;;;;;;;;;8491022;28;20138;-94
2023/07/19 07:37:23;;;;;;;5.13;2.10;;;;;;;;;;8472059;28;20046;-95
2023/07/19 07:41:26;;;;;;;3.80;2.15;;;;;;;;;;8462545;28;20058;-94
2023/07/19 07:45:31;;;;;;;3.38;1.95;;;;;;;;;;8481984;28;20135;-93
2023/07/19 07:49:33;;;;;;;3.47;2.00;;;;;;;;;;8466220;28;20081;-96
2023/07/19 07:53:36;;;;;;;4.00;2.38;;;;;;;;;;8464039;28;20051;-95
2023/07/19 07:57:39;;;;;;;4.15;1.90;;;;;;;;;;8477815;27;20379;-94
2023/07/19 08:01:44;;;;;;;3.38;1.80;;;;;;;;;;8468947;28;20134;-95
2023/07/19 08:05:46;;;;;;;4.20;1.90;;;;;;;;;;8489127;27;20243;-94
2023/07/19 08:09:49;;;;;;;3.13;2.00;;;;;;;;;;8488245;27;20107;-95
2023/07/19 08:13:52;;;;;;;3.80;2.05;;;;;;;;;;8478749;27;20046;-93
2023/07/19 08:17:57;;;;;;;2.75;1.80;;;;;;;;;;8481296;27;20043;-95
2023/07/19 08:22:04;;;;;;;3.97;1.98;;;;;;;;;;8484490;27;20126;-94
2023/07/19 08:26:07;;;;;;;3.17;1.90;;;;;;;;;;8468284;28;20593;-95
2023/07/19 08:30:15;;;;;;;3.63;1.95;;;;;;;;;;8495789;27;20043;-94
2023/07/19 08:34:19;;;;;;;3.97;1.88;;;;;;;;;;8500632;27;20072;-94
2023/07/19 08:38:21;;;;;;;3.95;1.90;;;;;;;;;;8500569;27;20066;-95
2023/07/19 08:42:24;;;;;;;5.88;2.03;;;;;;;;;;8467280;27;20050;-94
2023/07/19 08:46:27;;;;;;;3.22;1.80;;;;;;;;;;8467397;28;20127;-95
2023/07/19 08:50:33;;;;;;;6.13;2.10;;;;;;;;;;8489045;27;20078;-95
2023/07/19 08:54:37;;;;;;;2.88;2.15;;;;;;;;;;8486668;27;20092;-95
2023/07/19 08:58:40;;;;;;;2.75;1.70;;;;;;;;;;8493100;27;20050;-94
2023/07/19 09:02:43;;;;;;;4.70;2.00;;;;;;;;;;8479782;27;20599;-96
2023/07/19 09:06:50;;;;;;;4.78;2.08;;;;;;;;;;8475293;27;20451;-95
2023/07/19 09:10:53;;;;;;;4.45;2.10;;;;;;;;;;8484811;27;20501;-95
2023/07/19 09:14:59;;;;;;;6.25;2.05;;;;;;;;;;8474573;27;20451;-94
2023/07/19 09:19:02;;;;;;;3.17;1.77;;;;;;;;;;8484539;27;20070;-95
2023/07/19 09:23:07;;;;;;;4.53;1.95;;;;;;;;;;8473438;27;20482;-96
2023/07/19 09:27:10;;;;;;;3.88;1.90;;;;;;;;;;8492085;27;20145;-93
2023/07/19 09:31:14;;;;;;;5.07;1.95;;;;;;;;;;8498416;27;20077;-95
2023/07/19 09:35:27;;;;;;;5.13;1.98;;;;;;;;;;8496101;27;20060;-93
2023/07/19 09:39:34;;;;;;;6.07;2.25;;;;;;;;;;8482085;27;20471;-96
2023/07/19 09:43:38;;;;;;;6.00;2.10;;;;;;;;;;8484677;27;20043;-94
2023/07/19 09:47:42;;;;;;;4.82;1.90;;;;;;;;;;8466198;28;20188;-95
2023/07/19 09:51:55;;;;;;;6.32;1.90;;;;;;;;;;8465437;27;20085;-96
2023/07/19 09:56:04;;;;;;;5.38;2.35;;;;;;;;;;8498403;27;20418;-93
2023/07/19 10:00:09;;;;;;;10.65;5.90;;;;;;;;;;8468095;27;20144;-94
2023/07/19 10:04:25;;;;;;;3.30;2.15;;;;;;;;;;8478739;27;20043;-94
2023/07/19 10:08:28;;;;;;;3.28;1.90;;;;;;;;;;8494829;27;20448;-95
2023/07/19 10:12:40;;;;;;;5.47;2.25;;;;;;;;;;8481713;27;20076;-94
2023/07/19 10:16:49;;;;;;;7.03;2.17;;;;;;;;;;8491423;27;20886;-94
2023/07/19 10:21:01;;;;;;;3.97;1.83;;;;;;;;;;8490713;27;20404;-93
2023/07/19 10:25:10;;;;;;;3.63;2.00;;;;;;;;;;8466908;27;20047;-93
2023/07/19 10:29:18;;;;;;;3.67;2.03;;;;;;;;;;8495105;27;20054;-95
2023/07/19 10:33:26;;;;;;;3.85;2.10;;;;;;;;;;8480170;27;20479;-93
2023/07/19 10:37:29;;;;;;;2.92;2.20;;;;;;;;;;8470030;27;20051;-93
2023/07/19 10:41:32;;;;;;;6.32;2.25;;;;;;;;;;8476841;27;20095;-95
2023/07/19 10:45:37;;;;;;;6.95;2.33;;;;;;;;;;8463715;28;20040;-94
2023/07/19 10:49:40;;;;;;;2.45;1.85;;;;;;;;;;8477752;27;20401;-93
2023/07/19 10:53:47;;;;;;;4.72;2.20;;;;;;;;;;8473704;27;20051;-92
2023/07/19 10:57:57;;;;;;;3.63;2.00;;;;;;;;;;8470280;27;20047;-91
2023/07/19 11:02:02;;;;;;;3.47;2.30;;;;;;;;;;8471773;27;20043;-92
2023/07/19 11:06:09;;;;;;;3.75;2.40;;;;;;;;;;8462676;28;20044;-92
2023/07/19 11:10:12;;;;;;;7.00;2.63;;;;;;;;;;8463329;28;20048;-92
2023/07/19 11:14:28;;;;;;;4.35;1.92;;;;;;;;;;8462245;28;20515;-92
2023/07/19 11:18:38;;;;;;;4.20;2.17;;;;;;;;;;8462283;28;20468;-93
2023/07/19 11:22:41;;;;;;;6.97;2.28;;;;;;;;;;8462775;28;20052;-94
2023/07/19 11:26:52;;;;;;;6.80;2.35;;;;;;;;;;8475714;28;20044;-92
2023/07/19 11:30:55;;;;;;;4.93;2.40;;;;;;;;;;8469316;27;20081;-92
2023/07/19 11:35:00;;;;;;;2.80;1.92;;;;;;;;;;8502517;27;20039;-93
2023/07/19 11:39:03;;;;;;;3.72;2.05;;;;;;;;;;8478628;27;20115;-93
2023/07/19 11:43:06;;;;;;;3.65;2.22;;;;;;;;;;8494064;27;20067;-93
2023/07/19 11:47:09;;;;;;;3.72;2.28;;;;;;;;;;8472734;27;20123;-93
2023/07/19 11:51:15;;;;;;;3.80;2.40;;;;;;;;;;8483781;27;20047;-94
2023/07/19 11:55:20;;;;;;;5.97;2.50;;;;;;;;;;8494933;27;20035;-93
2023/07/19 11:59:23;;;;;;;5.60;2.53;;;;;;;;;;8496425;27;20043;-93
2023/07/19 12:03:26;;;;;;;5.28;2.40;;;;;;;;;;8496273;27;20175;-93
2023/07/19 12:07:31;;;;;;;5.95;2.42;;;;;;;;;;8501705;27;20047;-92
2023/07/19 12:11:34;;;;;;;6.25;2.55;;;;;;;;;;8492981;27;20040;-92
2023/07/19 12:15:36;;;;;;;3.95;2.50;;;;;;;;;;8481124;27;20514;-93
2023/07/19 12:19:39;;;;;;;3.63;2.40;;;;;;;;;;8468961;27;20055;-92
2023/07/19 12:23:44;;;;;;;5.00;2.28;;;;;;;;;;8468023;27;20059;-93
2023/07/19 12:27:52;;;;;;;4.82;2.38;;;;;;;;;;8468305;28;20043;-92
2023/07/19 12:31:55;;;;;;;4.63;2.70;;;;;;;;;;8481627;27;20066;-92
2023/07/19 12:35:58;;;;;;;4.65;2.35;;;;;;;;;;8476304;27;20042;-92
2023/07/19 12:40:08;;;;;;;5.20;2.47;;;;;;;;;;8501375;27;20122;-92
2023/07/19 12:44:11;;;;;;;;;;;;;;;;;;8500390;27;20157;-94
2023/07/19 12:48:14;;;;;;;5.15;2.38;;;;;;;;;;8477807;27;20015;-92
2023/07/19 12:52:17;;;;;;;3.33;2.45;;;;;;;;;;8473916;27;20050;-92
2023/07/19 12:56:21;;;;;;;5.85;2.67;;;;;;;;;;8487908;27;20043;-92
2023/07/19 13:00:24;;;;;;;5.80;2.58;;;;;;;;;;8487527;27;20054;-92
2023/07/19 13:04:27;;;;;;;4.75;2.85;;;;;;;;;;8485484;27;20051;-92
2023/07/19 13:08:30;;;;;;;10.07;3.58;;;;;;;;;;8474301;27;20044;-92
2023/07/19 13:12:34;;;;;;;6.40;2.50;;;;;;;;;;8466361;28;20092;-93
2023/07/19 13:16:37;;;;;;;4.00;2.45;;;;;;;;;;8492695;27;20406;-93
2023/07/19 13:20:40;;;;;;;5.47;2.55;;;;;;;;;;8485819;27;20063;-93
2023/07/19 13:24:43;;;;;;;7.97;3.00;;;;;;;;;;8486586;27;20043;-93
2023/07/19 13:28:48;;;;;;;6.32;2.30;;;;;;;;;;8490744;27;20398;-93
2023/07/19 13:32:51;;;;;;;7.25;2.63;;;;;;;;;;8494217;27;20046;-93
2023/07/19 13:36:58;;;;;;;6.70;2.33;;;;;;;;;;8487720;27;20043;-93
2023/07/19 13:41:01;;;;;;;3.50;2.33;;;;;;;;;;8489512;27;20047;-93
2023/07/19 13:45:07;;;;;;;4.32;2.88;;;;;;;;;;8493677;27;20047;-93
2023/07/19 13:49:11;;;;;;;5.53;2.60;;;;;;;;;;8491639;27;20077;-93
2023/07/19 13:53:14;;;;;;;6.95;2.72;;;;;;;;;;8470440;27;20491;-94
2023/07/19 13:57:17;;;;;;;13.70;3.55;;;;;;;;;;8476276;27;20126;-93
2023/07/19 14:01:22;;;;;;;5.57;2.90;;;;;;;;;;8492403;27;20073;-92
2023/07/19 14:05:37;;;;;;;4.28;2.63;;;;;;;;;;8485805;27;20055;-95
2023/07/19 14:09:46;;;;;;;4.97;2.88;;;;;;;;;;8486515;27;20408;-93
2023/07/19 14:13:52;;;;;;;8.75;3.10;;;;;;;;;;8488252;27;20147;-93
2023/07/19 14:17:57;;;;;;;6.32;2.90;;;;;;;;;;8487322;27;20524;-94
2023/07/19 14:22:00;;;;;;;4.55;2.63;;;;;;;;;;8473374;27;20086;-92
2023/07/19 14:26:07;;;;;;;6.30;2.60;;;;;;;;;;8482622;27;20043;-93
2023/07/19 14:30:11;;;;;;;7.85;2.60;;;;;;;;;;8482988;27;20054;-93
2023/07/19 14:34:15;;;;;;;6.82;2.90;;;;;;;;;;8484954;27;20050;-94
2023/07/19 14:38:27;;;;;;;4.18;2.70;;;;;;;;;;8471596;27;20043;-94
2023/07/19 14:42:30;;;;;;;4.32;2.50;;;;;;;;;;8479157;27;20547;-93
2023/07/19 14:46:33;;;;;;;7.10;3.08;;;;;;;;;;8485347;27;20726;-94
2023/07/19 14:50:39;;;;;;;4.97;3.15;;;;;;;;;;8489563;27;20077;-93
2023/07/19 14:54:46;;;;;;;7.97;3.28;;;;;;;;;;8482429;27;20049;-92
2023/07/19 14:58:49;;;;;;;13.65;4.72;;;;;;;;;;8470327;27;20054;-93
2023/07/19 15:02:52;;;;;;;16.80;5.57;;;;;;;;;;8477423;27;20087;-92
2023/07/19 15:06:57;;;;;;;19.50;6.38;;;;;;;;;;8486362;27;20394;-92
2023/07/19 15:11:00;;;;;;;6.57;2.60;;;;;;;;;;8485592;27;20051;-91
2023/07/19 15:15:04;;;;;;;6.55;3.00;;;;;;;;;;8482846;28;20558;-93
2023/07/19 15:19:07;;;;;;;6.20;2.40;;;;;;;;;;8480894;27;20047;-91
2023/07/19 15:23:12;;;;;;;4.85;2.30;;;;;;;;;;8469819;28;20828;-93
2023/07/19 15:27:14;;;;;;;4.88;2.47;;;;;;;;;;8481692;28;20054;-93
2023/07/19 15:31:19;;;;;;;5.65;2.75;;;;;;;;;;8478998;28;20056;-94
2023/07/19 15:35:23;;;;;;;5.68;2.70;;;;;;;;;;8480497;28;20099;-94
2023/07/19 15:39:30;;;;;;;9.48;2.60;;;;;;;;;;8488493;28;20126;-92
2023/07/19 15:43:35;;;;;;;6.65;2.53;;;;;;;;;;8475113;28;20067;-92
2023/07/19 15:47:39;;;;;;;3.83;2.38;;;;;;;;;;8486937;28;20066;-91
2023/07/19 15:51:42;;;;;;;9.05;2.80;;;;;;;;;;8477143;28;20071;-91
2023/07/19 15:55:49;;;;;;;7.88;3.42;;;;;;;;;;8481554;27;20092;-92
2023/07/19 15:59:53;;;;;;;4.93;2.72;;;;;;;;;;8483062;28;20048;-92
2023/07/19 16:03:56;;;;;;;8.40;2.80;;;;;;;;;;8468274;28;20131;-90
2023/07/19 16:07:58;;;;;;;4.88;2.72;;;;;;;;;;8483244;28;20046;-93
2023/07/19 16:12:03;;;;;;;6.43;3.00;;;;;;;;;;8484279;28;20119;-94
2023/07/19 16:16:06;;;;;;;6.60;3.17;;;;;;;;;;8489421;28;20039;-93
2023/07/19 16:20:11;;;;;;;6.13;2.90;;;;;;;;;;8466994;27;20079;-92
2023/07/19 16:24:14;;;;;;;5.05;2.50;;;;;;;;;;8490743;27;20059;-91
2023/07/19 16:28:18;;;;;;;4.68;2.60;;;;;;;;;;8488819;27;20062;-91
2023/07/19 16:32:21;;;;;;;6.93;2.80;;;;;;;;;;8493208;27;20058;-91
2023/07/19 16:36:24;;;;;;;6.47;2.80;;;;;;;;;;8492199;27;20047;-92
2023/07/19 16:40:27;;;;;;;5.57;2.63;;;;;;;;;;8483519;27;20163;-91
2023/07/19 16:44:32;;;;;;;5.53;3.33;;;;;;;;;;8494791;27;20086;-92
2023/07/19 16:48:35;;;;;;;7.22;3.00;;;;;;;;;;8488221;27;20063;-91
2023/07/19 16:52:41;;;;;;;7.32;2.65;;;;;;;;;;8489689;27;20043;-91
2023/07/19 16:56:44;;;;;;;5.72;2.60;;;;;;;;;;8488810;27;20043;-92
2023/07/19 17:00:49;;;;;;;7.43;2.70;;;;;;;;;;8478895;27;20683;-91
2023/07/19 17:04:52;;;;;;;6.53;2.53;;;;;;;;;;8483062;27;20124;-92
2023/07/19 17:08:55;;;;;;;12.82;2.67;;;;;;;;;;8479540;27;20483;-92
2023/07/19 17:12:58;;;;;;;5.70;2.55;;;;;;;;;;8488562;27;20070;-91
2023/07/19 17:17:02;;;;;;;5.13;2.20;;;;;;;;;;8486798;27;20055;-92
2023/07/19 17:21:06;;;;;;;5.25;2.70;;;;;;;;;;8490715;27;20094;-91
2023/07/19 17:25:14;;;;;;;3.53;2.50;;;;;;;;;;8492039;27;20622;-92
2023/07/19 17:29:18;;;;;;;5.57;2.35;;;;;;;;;;8493710;27;20047;-91
2023/07/19 17:33:25;;;;;;;4.90;2.58;;;;;;;;;;8493263;27;20107;-91
2023/07/19 17:37:29;;;;;;;6.50;2.78;;;;;;;;;;8483668;27;20483;-91
2023/07/19 17:41:33;;;;;;;4.80;2.70;;;;;;;;;;8493238;27;20051;-92
2023/07/19 17:45:37;;;;;;;5.88;3.17;;;;;;;;;;8486041;27;20188;-91
2023/07/19 17:49:42;;;;;;;6.47;3.10;;;;;;;;;;8492692;27;20069;-91
2023/07/19 17:53:45;;;;;;;11.20;3.40;;;;;;;;;;8481653;27;20093;-91
2023/07/19 17:57:56;;;;;;;6.93;2.90;;;;;;;;;;8478299;27;20145;-91
2023/07/19 18:01:59;;;;;;;7.65;3.25;;;;;;;;;;8489329;27;20036;-92
2023/07/19 18:06:04;;;;;;;8.15;3.17;;;;;;;;;;8484188;27;20075;-92
2023/07/19 18:10:09;;;;;;;6.95;3.22;;;;;;;;;;8488055;27;20546;-91
2023/07/19 18:14:14;;;;;;;7.00;3.50;;;;;;;;;;8482630;27;20095;-90
2023/07/19 18:18:17;;;;;;;12.27;3.80;;;;;;;;;;8497562;27;20439;-90
2023/07/19 18:22:22;;;;;;;7.38;3.85;;;;;;;;;;8467818;27;20052;-91
2023/07/19 18:26:25;;;;;;;24.77;11.98;;;;;;;;;;8476317;27;20070;-89
2023/07/19 18:30:28;;;;;;;18.88;8.07;;;;;;;;;;8467300;27;20127;-90
2023/07/19 18:34:33;;;;;;;18.25;9.18;;;;;;;;;;8480933;27;20526;-91
2023/07/19 18:38:39;;;;;;;16.48;6.32;;;;;;;;;;8492831;27;20045;-91
2023/07/19 18:42:43;;;;;;;15.90;7.55;;;;;;;;;;8484241;27;20126;-91
2023/07/19 18:46:49;;;;;;;13.15;7.05;;;;;;;;;;8488719;27;20505;-92
2023/07/19 18:50:53;;;;;;;15.60;8.13;;;;;;;;;;8468716;27;20165;-91
2023/07/19 18:54:59;;;;;;;17.02;8.68;;;;;;;;;;8482417;27;20380;-90
2023/07/19 18:59:03;;;;;;;26.70;10.60;;;;;;;;;;8476531;27;20100;-91
2023/07/19 19:03:09;;;;;;;39.78;15.50;;;;;;;;;;8495554;27;20039;-92
2023/07/19 19:07:13;;;;;;;47.08;18.65;;;;;;;;;;8501205;27;20116;-91
2023/07/19 19:11:18;;;;;;;37.55;16.02;;;;;;;;;;8497677;27;20047;-92
2023/07/19 19:15:21;;;;;;;31.65;12.70;;;;;;;;;;8497738;27;20082;-90
2023/07/19 19:19:26;;;;;;;25.98;9.75;;;;;;;;;;8491027;28;20044;-91
2023/07/19 19:23:38;;;;;;;16.35;5.03;;;;;;;;;;8488336;28;20047;-92
2023/07/19 19:27:43;;;;;;;22.15;8.30;;;;;;;;;;8488842;28;20869;-91
2023/07/19 19:31:49;;;;;;;16.85;7.65;;;;;;;;;;8495914;28;20040;-91
2023/07/19 19:35:53;;;;;;;14.98;7.15;;;;;;;;;;8494929;27;20055;-91
2023/07/19 19:39:57;;;;;;;12.77;6.65;;;;;;;;;;8467650;28;20119;-91
2023/07/19 19:44:03;;;;;;;13.45;7.05;;;;;;;;;;8485866;28;20039;-91
2023/07/19 19:48:07;;;;;;;12.88;6.25;;;;;;;;;;8494166;27;20062;-91
2023/07/19 19:52:11;;;;;;;13.48;6.47;;;;;;;;;;8482797;27;20454;-91
2023/07/19 19:56:15;;;;;;;13.52;6.28;;;;;;;;;;8491284;27;20135;-91
2023/07/19 20:00:21;;;;;;;16.95;7.45;;;;;;;;;;8472403;27;20042;-91
2023/07/19 20:04:25;;;;;;;18.55;7.18;;;;;;;;;;8502790;27;20039;-90
2023/07/19 20:08:28;;;;;;;11.52;6.47;;;;;;;;;;8484861;27;20046;-91
2023/07/19 20:12:32;;;;;;;13.25;6.65;;;;;;;;;;8468827;27;20055;-91
2023/07/19 20:16:39;;;;;;;10.32;6.10;;;;;;;;;;8468627;27;20512;-90
2023/07/19 20:20:42;;;;;;;12.30;6.13;;;;;;;;;;8468297;28;20138;-90
2023/07/19 20:24:47;;;;;;;11.52;5.60;;;;;;;;;;8466995;28;20507;-91
2023/07/19 20:28:51;;;;;;;10.98;5.53;;;;;;;;;;8468020;28;20130;-91
2023/07/19 20:32:57;;;;;;;10.77;5.22;;;;;;;;;;8467922;28;20067;-91
2023/07/19 20:37:01;;;;;;;8.98;5.57;;;;;;;;;;8499252;27;20043;-90
2023/07/19 20:41:05;;;;;;;9.50;5.93;;;;;;;;;;8501371;27;20047;-90
2023/07/19 20:45:10;;;;;;;8.00;5.50;;;;;;;;;;8496143;27;20490;-90
2023/07/19 20:49:15;;;;;;;8.65;5.82;;;;;;;;;;8475348;27;20118;-91
2023/07/19 20:53:19;;;;;;;9.57;5.70;;;;;;;;;;8467421;28;20067;-91
2023/07/19 20:57:22;;;;;;;7.30;5.32;;;;;;;;;;8492881;27;20089;-92
2023/07/19 21:01:25;;;;;;;8.35;5.88;;;;;;;;;;8467606;27;20085;-91
2023/07/19 21:05:29;;;;;;;7.97;6.25;;;;;;;;;;8466638;27;20047;-91
2023/07/19 21:09:32;;;;;;;11.90;6.22;;;;;;;;;;8480542;27;20116;-90
